createdAt,value
2022-10-29T00:04:50.057Z,10.05
2022-10-29T00:12:25.063Z,9.70
2022-10-29T00:27:35.095Z,10.55
2022-10-29T00:42:43.884Z,11.30
2022-10-29T00:57:56.466Z,14.48
2022-10-29T01:05:32.307Z,13.32
2022-10-29T01:13:20.165Z,9.80
2022-10-29T01:21:30.657Z,15.80
2022-10-29T01:29:21.070Z,11.18
2022-10-29T01:37:01.828Z,14.77
2022-10-29T01:44:40.567Z,11.02
2022-10-29T01:52:17.664Z,10.13
2022-10-29T01:59:56.103Z,8.30
2022-10-29T02:07:46.240Z,10.07
2022-10-29T02:15:24.461Z,8.90
2022-10-29T02:22:59.918Z,9.93
2022-10-29T02:30:33.635Z,8.57
2022-10-29T02:38:08.762Z,10.25
2022-10-29T02:45:42.392Z,10.73
2022-10-29T02:53:17.439Z,12.73
2022-10-29T03:08:26.490Z,9.95
2022-10-29T03:16:00.139Z,8.02
2022-10-29T03:23:35.180Z,10.85
2022-10-29T03:38:43.484Z,12.18
2022-10-29T03:46:17.071Z,14.00
2022-10-29T03:53:52.119Z,7.95
2022-10-29T04:09:01.779Z,9.93
2022-10-29T04:32:04.642Z,10.07
2022-10-29T04:39:39.745Z,10.88
2022-10-29T04:47:13.446Z,12.00
2022-10-29T04:54:48.547Z,10.57
2022-10-29T05:02:22.167Z,9.65
2022-10-29T05:09:57.137Z,8.00
2022-10-29T05:25:06.532Z,16.65
2022-10-29T05:32:40.091Z,9.55
2022-10-29T05:40:15.289Z,10.90
2022-10-29T05:47:49.515Z,8.88
2022-10-29T05:55:24.788Z,9.90
2022-10-29T06:02:59.479Z,9.20
2022-10-29T06:18:08.855Z,11.57
2022-10-29T06:25:43.855Z,9.63
2022-10-29T06:40:54.813Z,16.08
2022-10-29T06:48:28.689Z,9.32
2022-10-29T06:56:03.811Z,12.88
2022-10-29T07:03:37.486Z,11.77
2022-10-29T07:11:13.248Z,16.55
2022-10-29T07:18:46.897Z,12.70
2022-10-29T07:26:21.907Z,14.05
2022-10-29T07:41:30.540Z,11.57
2022-10-29T07:49:04.473Z,10.77
2022-10-29T07:56:42.376Z,12.90
2022-10-29T08:04:19.616Z,11.18
2022-10-29T08:11:54.836Z,18.93
2022-10-29T08:19:30.022Z,9.63
2022-10-29T08:27:05.249Z,13.77
2022-10-29T08:34:40.990Z,12.40
2022-10-29T08:42:29.567Z,15.15
2022-10-29T08:50:12.139Z,17.70
2022-10-29T08:57:53.581Z,12.60
2022-10-29T09:05:33.909Z,9.20
2022-10-29T09:13:26.804Z,8.93
2022-10-29T09:21:09.267Z,10.85
2022-10-29T09:28:55.126Z,11.52
2022-10-29T09:36:31.879Z,10.05
2022-10-29T09:44:16.094Z,11.75
2022-10-29T09:51:54.704Z,10.02
2022-10-29T09:59:32.999Z,11.38
2022-10-29T10:07:08.396Z,7.15
2022-10-29T10:14:44.616Z,9.38
2022-10-29T10:22:20.916Z,17.52
2022-10-29T10:30:16.019Z,8.70
2022-10-29T10:37:49.734Z,10.87
2022-10-29T10:45:35.125Z,11.63
2022-10-29T11:00:59.172Z,9.23
2022-10-29T11:08:37.886Z,9.50
2022-10-29T11:16:20.934Z,13.82
2022-10-29T11:24:02.893Z,7.18
2022-10-29T11:31:46.353Z,11.63
2022-10-29T11:39:24.935Z,8.80
2022-10-29T11:47:14.053Z,13.60
2022-10-29T11:55:00.585Z,17.40
2022-10-29T12:02:52.448Z,12.40
2022-10-29T12:10:41.108Z,15.40
2022-10-29T12:18:26.752Z,11.65
2022-10-29T12:26:06.580Z,13.82
2022-10-29T12:33:49.360Z,11.00
2022-10-29T12:41:27.041Z,12.98
2022-10-29T12:49:12.109Z,11.68
2022-10-29T12:56:49.519Z,11.75
2022-10-29T13:04:28.606Z,14.90
2022-10-29T13:12:03.981Z,15.45
2022-10-29T13:19:49.435Z,14.43
2022-10-29T13:27:36.210Z,11.55
2022-10-29T13:35:42.191Z,10.77
2022-10-29T13:50:55.757Z,11.65
2022-10-29T13:58:33.448Z,13.38
2022-10-29T14:06:14.766Z,11.65
2022-10-29T14:13:50.435Z,13.70
2022-10-29T14:21:28.227Z,21.13
2022-10-29T14:29:15.210Z,15.48
2022-10-29T14:36:52.385Z,14.45
2022-10-29T14:44:28.743Z,14.63
2022-10-29T14:52:07.417Z,12.45
2022-10-29T14:59:48.608Z,11.65
2022-10-29T15:07:35.500Z,13.13
2022-10-29T15:15:10.846Z,15.13
2022-10-29T15:22:46.563Z,13.90
2022-10-29T15:30:21.286Z,24.90
2022-10-29T15:37:56.746Z,12.75
2022-10-29T15:45:30.577Z,12.68
2022-10-29T16:00:41.818Z,15.38
2022-10-29T16:08:26.168Z,10.30
2022-10-29T16:15:59.851Z,12.65
2022-10-29T16:23:37.649Z,15.02
2022-10-29T16:31:20.508Z,13.73
2022-10-29T16:38:55.663Z,18.45
2022-10-29T16:54:04.295Z,19.95
2022-10-29T17:01:37.921Z,16.25
2022-10-29T17:09:14.212Z,18.80
2022-10-29T17:16:47.846Z,14.65
2022-10-29T17:24:22.861Z,12.55
2022-10-29T17:39:31.812Z,13.32
2022-10-29T17:54:40.392Z,17.38
2022-10-29T18:09:49.117Z,14.98
2022-10-29T18:24:57.590Z,19.05
2022-10-29T18:40:07.464Z,14.00
2022-10-29T18:47:40.985Z,16.77
2022-10-29T18:55:16.717Z,19.40
2022-10-29T19:02:50.644Z,20.10
2022-10-29T19:10:25.655Z,16.52
2022-10-29T19:25:40.619Z,18.75
2022-10-29T19:33:14.310Z,19.02
2022-10-29T19:40:49.290Z,19.42
2022-10-29T19:55:58.191Z,17.77
2022-10-29T20:03:32.058Z,17.85
2022-10-29T20:11:07.846Z,18.58
2022-10-29T20:18:41.499Z,19.27
2022-10-29T20:26:16.483Z,17.90
2022-10-29T20:41:25.480Z,18.92
2022-10-29T20:48:59.167Z,17.00
2022-10-29T20:56:36.521Z,20.17
2022-10-29T21:04:10.188Z,19.40
2022-10-29T21:11:45.220Z,17.90
2022-10-29T21:26:53.719Z,20.90
2022-10-29T21:42:02.609Z,20.75
2022-10-29T21:57:11.109Z,19.08
2022-10-29T22:12:19.882Z,20.30
2022-10-29T22:19:53.476Z,21.30
2022-10-29T22:27:28.462Z,24.63
2022-10-29T22:42:37.427Z,17.85
2022-10-29T22:50:13.837Z,24.67
2022-10-29T22:57:48.885Z,21.50
2022-10-29T23:12:57.471Z,22.05
2022-10-29T23:28:05.979Z,21.88
2022-10-29T23:43:15.277Z,21.67
2022-10-29T23:50:49.922Z,21.25
2022-10-29T23:58:25.191Z,21.38
